Time;durP1;ratioP1;P1;durP2;ratioP2;P2;SDS_P1;SDS_P2;PMS_P1;PMS_P2;Temp;Humidity;BMP_temperature;BMP_pressure;BME280_temperature;BME280_humidity;BME280_pressure;Samples;Min_cycle;Max_cycle;Signal;HPM_P1;HPM_P2
2024/01/28 00:00:35;;;;;;;9.65;4.50;;;;;;;;;;5015881;28;20029;-87
2024/01/28 00:03:01;;;;;;;3.25;2.92;;;;;;;;;;5016773;28;20468;-87
2024/01/28 00:05:26;;;;;;;5.00;3.22;;;;;;;;;;5018002;28;20111;-87
2024/01/28 00:07:51;;;;;;;4.28;3.03;;;;;;;;;;5016318;28;20064;-87
2024/01/28 00:10:17;;;;;;;7.93;3.58;;;;;;;;;;5016863;28;20018;-85
2024/01/28 00:12:42;;;;;;;5.72;3.55;;;;;;;;;;5015091;28;20110;-86
2024/01/28 00:15:10;;;;;;;7.65;3.92;;;;;;;;;;5014791;28;20029;-86
2024/01/28 00:17:35;;;;;;;4.97;2.85;;;;;;;;;;5015545;28;20029;-85
2024/01/28 00:20:01;;;;;;;6.18;2.97;;;;;;;;;;5015049;28;21134;-86
2024/01/28 00:22:26;;;;;;;4.25;2.70;;;;;;;;;;5013474;28;20148;-85
2024/01/28 00:24:52;;;;;;;3.78;3.17;;;;;;;;;;5015934;28;20022;-86
2024/01/28 00:27:17;;;;;;;10.60;4.55;;;;;;;;;;5017012;28;20033;-86
2024/01/28 00:29:42;;;;;;;2.65;2.25;;;;;;;;;;5012995;28;20044;-86
2024/01/28 00:32:08;;;;;;;4.05;2.50;;;;;;;;;;5012970;28;20041;-86
2024/01/28 00:34:33;;;;;;;2.72;2.53;;;;;;;;;;5015900;28;20036;-86
2024/01/28 00:36:58;;;;;;;5.95;3.53;;;;;;;;;;5019428;28;20598;-87
2024/01/28 00:39:24;;;;;;;2.60;2.40;;;;;;;;;;5020181;28;20034;-86
2024/01/28 00:41:50;;;;;;;5.72;2.88;;;;;;;;;;5016545;28;20017;-85
2024/01/28 00:44:15;;;;;;;6.50;3.83;;;;;;;;;;5016007;28;20018;-87
2024/01/28 00:46:41;;;;;;;6.30;3.47;;;;;;;;;;5016807;28;20026;-87
2024/01/28 00:49:06;;;;;;;5.82;2.50;;;;;;;;;;5017903;28;20030;-86
2024/01/28 00:51:31;;;;;;;4.82;2.53;;;;;;;;;;5018006;28;20113;-86
2024/01/28 00:53:57;;;;;;;4.45;3.08;;;;;;;;;;5014953;28;20076;-86
2024/01/28 00:56:23;;;;;;;4.13;2.75;;;;;;;;;;5014089;28;20146;-87
2024/01/28 00:58:48;;;;;;;5.78;3.92;;;;;;;;;;5013627;28;20042;-86
2024/01/28 01:01:14;;;;;;;12.07;2.72;;;;;;;;;;5012791;28;20022;-85
2024/01/28 01:03:39;;;;;;;6.25;3.15;;;;;;;;;;5015594;28;20033;-86
2024/01/28 01:06:07;;;;;;;6.43;4.05;;;;;;;;;;5013837;28;20030;-86
2024/01/28 01:08:33;;;;;;;4.57;3.15;;;;;;;;;;5012763;28;20026;-85
2024/01/28 01:11:03;;;;;;;4.47;3.15;;;;;;;;;;5014863;28;20029;-85
2024/01/28 01:13:30;;;;;;;11.93;2.45;;;;;;;;;;5014187;28;20097;-87
2024/01/28 01:15:55;;;;;;;4.07;3.17;;;;;;;;;;5011953;28;20025;-86
2024/01/28 01:18:21;;;;;;;2.97;2.78;;;;;;;;;;5011027;28;20025;-84
2024/01/28 01:20:46;;;;;;;3.88;3.08;;;;;;;;;;5011968;28;20018;-85
2024/01/28 01:23:11;;;;;;;4.75;2.92;;;;;;;;;;5003757;28;20026;-84
2024/01/28 01:25:37;;;;;;;3.15;2.80;;;;;;;;;;5010507;28;21081;-85
2024/01/28 01:28:02;;;;;;;4.53;2.85;;;;;;;;;;5009339;28;20116;-85
2024/01/28 01:30:28;;;;;;;3.63;2.88;;;;;;;;;;5012445;28;20084;-85
2024/01/28 01:32:53;;;;;;;5.63;3.30;;;;;;;;;;5009040;28;20022;-87
2024/01/28 01:35:19;;;;;;;4.97;2.35;;;;;;;;;;5011524;28;20365;-85
2024/01/28 01:37:45;;;;;;;6.75;2.50;;;;;;;;;;5013885;28;20018;-86
2024/01/28 01:40:14;;;;;;;2.45;2.25;;;;;;;;;;5011990;28;20132;-85
2024/01/28 01:42:40;;;;;;;5.97;4.07;;;;;;;;;;5010692;28;20041;-84
2024/01/28 01:45:06;;;;;;;3.70;2.83;;;;;;;;;;5011959;28;20093;-85
2024/01/28 01:47:32;;;;;;;5.28;3.35;;;;;;;;;;5013603;28;20635;-85
2024/01/28 01:49:57;;;;;;;8.55;3.65;;;;;;;;;;5013768;28;20022;-86
2024/01/28 01:52:23;;;;;;;2.60;2.40;;;;;;;;;;5008233;28;20393;-84
2024/01/28 01:54:51;;;;;;;4.00;3.03;;;;;;;;;;5009320;28;20118;-85
2024/01/28 01:57:17;;;;;;;9.07;4.30;;;;;;;;;;5015037;28;20075;-85
2024/01/28 01:59:42;;;;;;;3.45;3.15;;;;;;;;;;5015379;28;20081;-84
2024/01/28 02:02:09;;;;;;;8.48;3.65;;;;;;;;;;5013429;28;20030;-85
2024/01/28 02:04:35;;;;;;;2.53;2.22;;;;;;;;;;5011288;28;20040;-86
2024/01/28 02:07:00;;;;;;;5.07;3.25;;;;;;;;;;5014280;28;20026;-84
2024/01/28 02:09:26;;;;;;;9.55;3.50;;;;;;;;;;5009954;28;20021;-85
2024/01/28 02:11:51;;;;;;;2.22;2.03;;;;;;;;;;5014378;28;20096;-84
2024/01/28 02:14:23;;;;;;;5.50;3.17;;;;;;;;;;5012231;28;20044;-84
2024/01/28 02:16:49;;;;;;;7.75;3.63;;;;;;;;;;5016073;28;20029;-85
2024/01/28 02:19:15;;;;;;;7.00;3.72;;;;;;;;;;5020321;28;20033;-84
2024/01/28 02:21:41;;;;;;;2.83;1.77;;;;;;;;;;5011484;28;20044;-87
2024/01/28 02:24:06;;;;;;;4.03;2.90;;;;;;;;;;5016794;28;20030;-84
2024/01/28 02:26:31;;;;;;;2.80;2.45;;;;;;;;;;5010619;28;20036;-88
2024/01/28 02:28:57;;;;;;;2.92;2.65;;;;;;;;;;5009278;28;20503;-86
2024/01/28 02:31:23;;;;;;;4.65;2.25;;;;;;;;;;5006831;28;20144;-87
2024/01/28 02:33:49;;;;;;;5.13;3.28;;;;;;;;;;5006462;28;20113;-87
2024/01/28 02:36:14;;;;;;;4.82;2.50;;;;;;;;;;5008779;28;20066;-87
2024/01/28 02:38:39;;;;;;;6.88;3.08;;;;;;;;;;5010450;28;20157;-88
2024/01/28 02:41:05;;;;;;;7.03;2.67;;;;;;;;;;5008965;28;20480;-86
2024/01/28 02:43:30;;;;;;;8.23;3.65;;;;;;;;;;5008185;28;20664;-88
2024/01/28 02:45:55;;;;;;;4.20;2.67;;;;;;;;;;5008921;28;20018;-87
2024/01/28 02:48:21;;;;;;;5.25;2.47;;;;;;;;;;5010371;28;20022;-86
2024/01/28 02:50:46;;;;;;;7.85;3.05;;;;;;;;;;5008978;28;20029;-86
2024/01/28 02:53:12;;;;;;;4.93;2.17;;;;;;;;;;5009152;28;20021;-86
2024/01/28 02:55:37;;;;;;;4.20;2.67;;;;;;;;;;5008879;28;20033;-88
2024/01/28 02:58:03;;;;;;;6.97;3.47;;;;;;;;;;5010964;28;20562;-87
2024/01/28 03:00:29;;;;;;;6.22;3.45;;;;;;;;;;5010137;28;20465;-86
2024/01/28 03:02:54;;;;;;;3.92;2.53;;;;;;;;;;5011795;28;20072;-85
2024/01/28 03:05:20;;;;;;;3.50;2.45;;;;;;;;;;5010711;28;20022;-86
2024/01/28 03:07:45;;;;;;;7.63;3.45;;;;;;;;;;5011960;28;20033;-86
2024/01/28 03:10:10;;;;;;;5.47;3.10;;;;;;;;;;5013154;28;20030;-87
2024/01/28 03:12:36;;;;;;;5.15;2.78;;;;;;;;;;5013567;28;20076;-87
2024/01/28 03:15:02;;;;;;;2.83;2.55;;;;;;;;;;5015738;28;20029;-87
2024/01/28 03:17:28;;;;;;;4.03;3.63;;;;;;;;;;5017175;28;20026;-86
2024/01/28 03:19:53;;;;;;;5.10;2.60;;;;;;;;;;5015203;28;20060;-87
2024/01/28 03:22:19;;;;;;;3.63;3.00;;;;;;;;;;5010674;28;20099;-87
2024/01/28 03:24:47;;;;;;;2.70;2.45;;;;;;;;;;5010290;28;20022;-86
2024/01/28 03:27:12;;;;;;;2.33;2.13;;;;;;;;;;5012991;28;20036;-86
2024/01/28 03:29:38;;;;;;;3.63;3.25;;;;;;;;;;5016292;28;20093;-87
2024/01/28 03:32:04;;;;;;;6.25;4.03;;;;;;;;;;5016603;28;20029;-88
2024/01/28 03:34:29;;;;;;;2.08;1.90;;;;;;;;;;5011341;28;20068;-86
2024/01/28 03:36:55;;;;;;;5.55;2.53;;;;;;;;;;5012038;28;20045;-87
2024/01/28 03:39:20;;;;;;;3.92;3.08;;;;;;;;;;5014613;28;20092;-86
2024/01/28 03:41:45;;;;;;;5.22;2.70;;;;;;;;;;5012416;28;20026;-87
2024/01/28 03:44:12;;;;;;;2.55;2.17;;;;;;;;;;5012117;28;20030;-86
2024/01/28 03:46:38;;;;;;;3.17;2.75;;;;;;;;;;5013671;28;20594;-86
2024/01/28 03:49:04;;;;;;;5.43;3.17;;;;;;;;;;5014669;28;20026;-85
2024/01/28 03:51:30;;;;;;;2.65;2.33;;;;;;;;;;5012479;28;20021;-87
2024/01/28 03:53:55;;;;;;;3.05;2.75;;;;;;;;;;5011853;28;20025;-85
2024/01/28 03:56:21;;;;;;;2.92;2.65;;;;;;;;;;5015830;28;20037;-85
2024/01/28 03:58:46;;;;;;;6.15;3.10;;;;;;;;;;5010075;28;20029;-85
2024/01/28 04:01:12;;;;;;;7.78;2.63;;;;;;;;;;5012763;28;20033;-86
2024/01/28 04:03:38;;;;;;;4.45;2.30;;;;;;;;;;5016554;28;20032;-87
2024/01/28 04:06:03;;;;;;;3.03;2.55;;;;;;;;;;5016621;28;20026;-86
2024/01/28 04:08:29;;;;;;;3.03;2.33;;;;;;;;;;5011679;28;20435;-87
2024/01/28 04:10:54;;;;;;;7.53;4.72;;;;;;;;;;5010523;28;20044;-87
2024/01/28 04:13:19;;;;;;;7.85;3.30;;;;;;;;;;5010480;28;20026;-85
2024/01/28 04:15:45;;;;;;;5.85;2.33;;;;;;;;;;5012329;28;20050;-86
2024/01/28 04:18:10;;;;;;;2.30;2.08;;;;;;;;;;5012566;28;20091;-86
2024/01/28 04:20:35;;;;;;;4.63;2.95;;;;;;;;;;4998795;28;20026;-85
2024/01/28 04:23:01;;;;;;;9.60;2.97;;;;;;;;;;5007979;28;20030;-87
2024/01/28 04:25:26;;;;;;;5.38;3.22;;;;;;;;;;5013020;28;20025;-87
2024/01/28 04:27:51;;;;;;;5.03;2.95;;;;;;;;;;5011087;28;20022;-85
2024/01/28 04:30:17;;;;;;;3.45;2.33;;;;;;;;;;5015324;28;20025;-86
2024/01/28 04:32:44;;;;;;;2.60;2.13;;;;;;;;;;5008754;28;20026;-86
2024/01/28 04:35:12;;;;;;;8.10;2.95;;;;;;;;;;5011317;28;20018;-85
2024/01/28 04:37:41;;;;;;;3.10;2.60;;;;;;;;;;5013789;28;20061;-86
2024/01/28 04:40:07;;;;;;;2.95;2.03;;;;;;;;;;5010652;28;20026;-87
2024/01/28 04:42:33;;;;;;;5.32;2.15;;;;;;;;;;5012823;28;20050;-86
2024/01/28 04:44:58;;;;;;;7.50;2.45;;;;;;;;;;5010958;28;20389;-86
2024/01/28 04:47:24;;;;;;;3.42;2.78;;;;;;;;;;5011361;28;20384;-86
2024/01/28 04:49:49;;;;;;;3.83;2.53;;;;;;;;;;5011856;28;20046;-85
2024/01/28 04:52:14;;;;;;;3.38;2.35;;;;;;;;;;5013023;28;20025;-85
2024/01/28 04:54:40;;;;;;;4.30;3.33;;;;;;;;;;5014221;28;20022;-86
2024/01/28 04:57:05;;;;;;;3.97;2.65;;;;;;;;;;5014395;28;20040;-86
2024/01/28 04:59:31;;;;;;;2.30;2.00;;;;;;;;;;5012669;28;20034;-86
2024/01/28 05:01:56;;;;;;;3.60;2.35;;;;;;;;;;5015719;28;20568;-88
2024/01/28 05:04:22;;;;;;;5.28;2.40;;;;;;;;;;5013964;28;20092;-85
2024/01/28 05:06:47;;;;;;;2.47;2.08;;;;;;;;;;5014307;28;20028;-86
2024/01/28 05:09:13;;;;;;;2.60;1.83;;;;;;;;;;5011805;28;20105;-85
2024/01/28 05:11:38;;;;;;;6.78;3.42;;;;;;;;;;5010019;28;20034;-86
2024/01/28 05:14:04;;;;;;;6.78;3.20;;;;;;;;;;5007415;28;20121;-86
2024/01/28 05:16:30;;;;;;;4.50;2.78;;;;;;;;;;5012443;28;20025;-85
2024/01/28 05:18:56;;;;;;;2.85;1.80;;;;;;;;;;4999708;28;20026;-87
2024/01/28 05:21:22;;;;;;;9.15;2.95;;;;;;;;;;5011714;28;20028;-87
2024/01/28 05:23:49;;;;;;;4.18;2.60;;;;;;;;;;5011828;28;20061;-86
2024/01/28 05:26:14;;;;;;;2.38;2.20;;;;;;;;;;5012253;28;20025;-86
2024/01/28 05:28:40;;;;;;;4.50;2.45;;;;;;;;;;5011081;28;20469;-87
2024/01/28 05:31:07;;;;;;;3.10;2.78;;;;;;;;;;5014090;28;20030;-85
2024/01/28 05:33:34;;;;;;;4.70;2.03;;;;;;;;;;5011062;28;20048;-85
2024/01/28 05:36:00;;;;;;;3.15;2.20;;;;;;;;;;5030656;28;20021;-86
2024/01/28 05:38:26;;;;;;;5.45;3.13;;;;;;;;;;5031636;28;20024;-83
2024/01/28 05:40:52;;;;;;;3.92;2.53;;;;;;;;;;5032736;28;20090;-85
2024/01/28 05:43:17;;;;;;;5.53;3.22;;;;;;;;;;5012873;28;20049;-86
2024/01/28 05:45:42;;;;;;;14.02;3.47;;;;;;;;;;5011306;28;20033;-85
2024/01/28 05:48:08;;;;;;;3.38;2.40;;;;;;;;;;5013665;28;20403;-86
2024/01/28 05:50:33;;;;;;;5.15;2.80;;;;;;;;;;5011097;28;20117;-86
2024/01/28 05:52:58;;;;;;;4.68;3.28;;;;;;;;;;5012385;28;20022;-86
2024/01/28 05:55:24;;;;;;;3.20;1.70;;;;;;;;;;5032773;28;20025;-87
2024/01/28 05:57:49;;;;;;;8.30;3.13;;;;;;;;;;5017541;28;20037;-85
2024/01/28 06:00:16;;;;;;;3.30;2.28;;;;;;;;;;5012574;28;20028;-88
2024/01/28 06:02:41;;;;;;;3.10;2.80;;;;;;;;;;5010495;28;20041;-86
2024/01/28 06:05:09;;;;;;;6.68;3.47;;;;;;;;;;5012141;28;20025;-86
2024/01/28 06:07:34;;;;;;;6.45;2.83;;;;;;;;;;5011538;28;20034;-88
2024/01/28 06:10:00;;;;;;;5.53;2.80;;;;;;;;;;5010988;28;20036;-87
2024/01/28 06:12:25;;;;;;;1.98;1.88;;;;;;;;;;5011001;28;20032;-87
2024/01/28 06:14:51;;;;;;;6.93;2.53;;;;;;;;;;5012710;28;20018;-87
2024/01/28 06:17:16;;;;;;;3.75;3.00;;;;;;;;;;5013465;28;20033;-85
2024/01/28 06:19:41;;;;;;;3.17;2.67;;;;;;;;;;5015102;28;20041;-85
2024/01/28 06:22:07;;;;;;;2.15;2.00;;;;;;;;;;5015101;28;20061;-87
2024/01/28 06:24:33;;;;;;;3.38;2.38;;;;;;;;;;5013715;28;20068;-86
2024/01/28 06:26:58;;;;;;;2.95;2.47;;;;;;;;;;5014934;28;20049;-87
2024/01/28 06:29:24;;;;;;;5.00;2.40;;;;;;;;;;5016012;28;20423;-88
2024/01/28 06:31:50;;;;;;;2.88;2.60;;;;;;;;;;5027694;28;20025;-86
2024/01/28 06:34:15;;;;;;;4.97;2.38;;;;;;;;;;5024252;28;20087;-85
2024/01/28 06:36:41;;;;;;;6.80;3.65;;;;;;;;;;5011891;28;20040;-86
2024/01/28 06:39:06;;;;;;;4.13;2.72;;;;;;;;;;5014726;28;20037;-88
2024/01/28 06:41:31;;;;;;;2.33;2.13;;;;;;;;;;5015915;28;20193;-86
2024/01/28 06:43:57;;;;;;;3.85;2.92;;;;;;;;;;5015852;28;20041;-87
2024/01/28 06:46:22;;;;;;;2.50;2.30;;;;;;;;;;5015277;28;20021;-86
2024/01/28 06:48:47;;;;;;;7.07;2.67;;;;;;;;;;5016685;28;20057;-85
2024/01/28 06:51:13;;;;;;;1.88;1.73;;;;;;;;;;5017739;28;20026;-85
2024/01/28 06:53:38;;;;;;;3.45;2.90;;;;;;;;;;5020216;28;20077;-85
2024/01/28 06:56:04;;;;;;;6.60;3.10;;;;;;;;;;5019558;28;21046;-86
2024/01/28 06:58:29;;;;;;;4.35;3.08;;;;;;;;;;5018331;28;20513;-88
2024/01/28 07:00:54;;;;;;;4.30;3.17;;;;;;;;;;5018150;28;20032;-87
2024/01/28 07:03:20;;;;;;;3.10;2.45;;;;;;;;;;5016630;28;20650;-84
2024/01/28 07:05:46;;;;;;;3.85;2.50;;;;;;;;;;5017185;28;20685;-84
2024/01/28 07:08:11;;;;;;;4.95;3.08;;;;;;;;;;5016864;28;20064;-85
2024/01/28 07:10:36;;;;;;;2.80;2.60;;;;;;;;;;5016550;28;20045;-86
2024/01/28 07:13:05;;;;;;;3.42;2.85;;;;;;;;;;5014561;28;20072;-84
2024/01/28 07:15:30;;;;;;;3.83;2.80;;;;;;;;;;5013663;28;20044;-87
2024/01/28 07:17:55;;;;;;;2.15;1.95;;;;;;;;;;5016171;28;20025;-85
2024/01/28 07:20:21;;;;;;;3.33;1.35;;;;;;;;;;5018412;28;20235;-84
2024/01/28 07:22:46;;;;;;;4.55;3.38;;;;;;;;;;5015092;28;20123;-85
2024/01/28 07:25:13;;;;;;;2.97;2.53;;;;;;;;;;5013569;28;20105;-84
2024/01/28 07:27:39;;;;;;;3.03;2.72;;;;;;;;;;5014285;28;20118;-86
2024/01/28 07:30:06;;;;;;;3.92;3.50;;;;;;;;;;5018367;28;20040;-86
2024/01/28 07:32:31;;;;;;;7.47;3.20;;;;;;;;;;5017717;28;20035;-86
2024/01/28 07:34:56;;;;;;;7.38;3.33;;;;;;;;;;5014385;28;20124;-87
2024/01/28 07:37:22;;;;;;;8.25;2.85;;;;;;;;;;5014090;28;20038;-85
2024/01/28 07:39:47;;;;;;;6.47;3.75;;;;;;;;;;5015463;28;20026;-85
2024/01/28 07:42:13;;;;;;;8.60;4.28;;;;;;;;;;5012271;28;20025;-85
2024/01/28 07:44:39;;;;;;;7.43;3.80;;;;;;;;;;5014310;28;20030;-86
2024/01/28 07:47:04;;;;;;;7.05;4.82;;;;;;;;;;5014248;28;20034;-87
2024/01/28 07:49:30;;;;;;;12.85;4.20;;;;;;;;;;5015373;28;20026;-87
2024/01/28 07:51:55;;;;;;;7.32;3.58;;;;;;;;;;5014786;28;20028;-88
2024/01/28 07:54:21;;;;;;;6.03;4.40;;;;;;;;;;5013046;28;20116;-86
2024/01/28 07:56:46;;;;;;;9.40;4.78;;;;;;;;;;5010098;28;20488;-85
2024/01/28 07:59:11;;;;;;;5.85;4.57;;;;;;;;;;5012328;28;20510;-85
2024/01/28 08:01:37;;;;;;;7.05;4.28;;;;;;;;;;5015009;28;20036;-88
2024/01/28 08:04:02;;;;;;;10.35;5.03;;;;;;;;;;5017187;28;20447;-89
2024/01/28 08:06:27;;;;;;;5.25;3.55;;;;;;;;;;5015843;28;20037;-89
2024/01/28 08:08:54;;;;;;;7.13;4.50;;;;;;;;;;5015442;28;20550;-88
2024/01/28 08:11:19;;;;;;;8.23;4.53;;;;;;;;;;5014008;28;20018;-87
2024/01/28 08:13:45;;;;;;;8.30;4.93;;;;;;;;;;5014833;28;20021;-86
2024/01/28 08:16:10;;;;;;;7.50;4.28;;;;;;;;;;5020382;28;20041;-87
2024/01/28 08:18:35;;;;;;;9.25;5.07;;;;;;;;;;5015213;28;20038;-86
2024/01/28 08:21:01;;;;;;;9.82;4.32;;;;;;;;;;5016695;28;20034;-87
2024/01/28 08:23:26;;;;;;;7.65;3.80;;;;;;;;;;5014445;28;20439;-88
2024/01/28 08:25:53;;;;;;;8.15;5.05;;;;;;;;;;5015175;28;20778;-87
2024/01/28 08:28:19;;;;;;;10.10;4.63;;;;;;;;;;5016822;28;20057;-86
2024/01/28 08:30:44;;;;;;;7.07;3.70;;;;;;;;;;5014484;28;20030;-86
2024/01/28 08:33:10;;;;;;;7.68;4.28;;;;;;;;;;5014185;28;20089;-89
2024/01/28 08:35:37;;;;;;;11.38;4.68;;;;;;;;;;5015574;28;20040;-88
2024/01/28 08:38:03;;;;;;;9.25;4.28;;;;;;;;;;5014321;28;20056;-88
2024/01/28 08:40:28;;;;;;;7.88;4.03;;;;;;;;;;5013267;28;20025;-89
2024/01/28 08:42:53;;;;;;;7.18;4.07;;;;;;;;;;5011051;28;20311;-88
2024/01/28 08:45:19;;;;;;;10.48;4.88;;;;;;;;;;5014900;28;20075;-87
2024/01/28 08:47:44;;;;;;;7.70;5.22;;;;;;;;;;5014168;28;20065;-86
2024/01/28 08:50:10;;;;;;;6.82;3.53;;;;;;;;;;5015547;28;20028;-87
2024/01/28 08:52:35;;;;;;;5.85;3.38;;;;;;;;;;5015616;28;20038;-86
2024/01/28 08:55:01;;;;;;;9.07;4.15;;;;;;;;;;5015427;28;20044;-85
2024/01/28 08:57:26;;;;;;;11.43;3.85;;;;;;;;;;5013500;28;20018;-87
2024/01/28 08:59:52;;;;;;;5.05;3.28;;;;;;;;;;5018974;28;20026;-87
2024/01/28 09:02:17;;;;;;;7.88;3.95;;;;;;;;;;5016922;28;20022;-86
2024/01/28 09:04:43;;;;;;;9.57;4.05;;;;;;;;;;5012911;28;20042;-86
2024/01/28 09:07:08;;;;;;;5.00;3.42;;;;;;;;;;5013398;28;20049;-87
2024/01/28 09:09:33;;;;;;;5.47;3.78;;;;;;;;;;5014279;28;20065;-86
2024/01/28 09:11:59;;;;;;;6.57;3.10;;;;;;;;;;5013147;28;20029;-86
2024/01/28 09:14:24;;;;;;;6.60;3.88;;;;;;;;;;5011632;28;20048;-87
2024/01/28 09:16:50;;;;;;;5.97;4.60;;;;;;;;;;5013736;28;20033;-86
2024/01/28 09:19:15;;;;;;;8.52;4.35;;;;;;;;;;5013158;28;20013;-87
2024/01/28 09:21:40;;;;;;;6.20;3.90;;;;;;;;;;5014708;28;20045;-88
2024/01/28 09:24:06;;;;;;;5.45;3.45;;;;;;;;;;5013971;28;20037;-87
2024/01/28 09:26:31;;;;;;;3.38;3.03;;;;;;;;;;5016423;28;20137;-86
2024/01/28 09:28:57;;;;;;;4.82;3.58;;;;;;;;;;5014261;28;20105;-87
2024/01/28 09:31:22;;;;;;;4.28;3.33;;;;;;;;;;5014574;28;20115;-86
2024/01/28 09:33:47;;;;;;;6.10;3.40;;;;;;;;;;5025840;28;20041;-84
2024/01/28 09:36:13;;;;;;;5.03;3.22;;;;;;;;;;5017081;28;20553;-85
2024/01/28 09:38:39;;;;;;;7.50;4.20;;;;;;;;;;5021121;28;20100;-87
2024/01/28 09:41:12;;;;;;;8.02;4.15;;;;;;;;;;5008238;28;20133;-85
2024/01/28 09:43:39;;;;;;;5.95;3.67;;;;;;;;;;5006148;28;20124;-87
2024/01/28 09:46:08;;;;;;;7.20;3.65;;;;;;;;;;5014195;28;20029;-87
2024/01/28 09:48:34;;;;;;;5.68;3.70;;;;;;;;;;5014902;28;20036;-86
2024/01/28 09:50:59;;;;;;;5.57;3.30;;;;;;;;;;5006254;28;20026;-87
2024/01/28 09:53:25;;;;;;;6.43;3.42;;;;;;;;;;5000582;28;20056;-87
2024/01/28 09:55:50;;;;;;;5.43;3.38;;;;;;;;;;5012991;28;20068;-86
2024/01/28 09:58:16;;;;;;;5.68;3.88;;;;;;;;;;5022263;28;20053;-85
2024/01/28 10:00:42;;;;;;;6.43;3.63;;;;;;;;;;5013560;28;20038;-88
2024/01/28 10:03:09;;;;;;;6.32;4.05;;;;;;;;;;5011805;28;20038;-87
2024/01/28 10:05:34;;;;;;;7.38;3.40;;;;;;;;;;5013666;28;20041;-86
2024/01/28 10:08:02;;;;;;;7.20;4.50;;;;;;;;;;5014623;28;20022;-88
2024/01/28 10:10:28;;;;;;;5.93;3.10;;;;;;;;;;5013873;28;20025;-88
2024/01/28 10:12:53;;;;;;;4.60;3.13;;;;;;;;;;5015589;28;20105;-88
2024/01/28 10:15:23;;;;;;;9.10;4.32;;;;;;;;;;5015268;28;20017;-87
2024/01/28 10:17:49;;;;;;;10.57;3.53;;;;;;;;;;5010891;28;20057;-87
2024/01/28 10:20:25;;;;;;;4.40;3.33;;;;;;;;;;5011252;28;20037;-86
2024/01/28 10:22:52;;;;;;;7.47;3.80;;;;;;;;;;5012050;28;20030;-88
2024/01/28 10:25:19;;;;;;;5.78;2.95;;;;;;;;;;5007779;28;20029;-88
2024/01/28 10:27:46;;;;;;;5.65;2.97;;;;;;;;;;5012734;28;20033;-86
2024/01/28 10:30:13;;;;;;;4.82;3.17;;;;;;;;;;5016290;28;20049;-87
2024/01/28 10:32:39;;;;;;;4.35;3.22;;;;;;;;;;5013454;28;20120;-87
2024/01/28 10:35:16;;;;;;;5.13;2.35;;;;;;;;;;5012334;28;20054;-87
2024/01/28 10:37:41;;;;;;;4.72;3.13;;;;;;;;;;5017195;28;20038;-85
2024/01/28 10:40:08;;;;;;;6.55;4.25;;;;;;;;;;5014362;28;20770;-87
2024/01/28 10:42:38;;;;;;;4.88;3.08;;;;;;;;;;5012663;28;20038;-87
2024/01/28 10:45:06;;;;;;;4.70;3.25;;;;;;;;;;5011742;28;20056;-87
2024/01/28 10:47:33;;;;;;;6.72;3.30;;;;;;;;;;5011872;28;20040;-87
2024/01/28 10:50:02;;;;;;;4.55;3.08;;;;;;;;;;5018574;28;20071;-87
2024/01/28 10:52:28;;;;;;;6.00;3.28;;;;;;;;;;5008889;28;20033;-87
2024/01/28 10:54:55;;;;;;;4.15;3.05;;;;;;;;;;5010298;28;20022;-87
2024/01/28 10:57:20;;;;;;;4.90;3.20;;;;;;;;;;5012828;28;20017;-87
2024/01/28 10:59:46;;;;;;;6.13;3.33;;;;;;;;;;5007155;28;20029;-87
2024/01/28 11:02:12;;;;;;;4.00;3.40;;;;;;;;;;5014097;28;20099;-87
2024/01/28 11:04:39;;;;;;;4.32;2.72;;;;;;;;;;5012120;28;20061;-87
2024/01/28 11:07:06;;;;;;;4.88;3.15;;;;;;;;;;5010386;28;20075;-88
2024/01/28 11:09:32;;;;;;;5.40;3.53;;;;;;;;;;5009470;28;20060;-88
2024/01/28 11:11:58;;;;;;;5.38;3.17;;;;;;;;;;5011336;28;20112;-87
2024/01/28 11:14:26;;;;;;;4.38;2.75;;;;;;;;;;5012893;28;20022;-88
2024/01/28 11:16:51;;;;;;;6.18;3.15;;;;;;;;;;5011525;28;20052;-88
2024/01/28 11:19:17;;;;;;;5.60;3.00;;;;;;;;;;5008893;28;20053;-87
2024/01/28 11:21:51;;;;;;;7.50;2.95;;;;;;;;;;5009582;28;20057;-89
2024/01/28 11:24:17;;;;;;;3.53;2.80;;;;;;;;;;5010756;28;20536;-88
2024/01/28 11:26:47;;;;;;;6.18;3.03;;;;;;;;;;5021005;28;20053;-91
2024/01/28 11:29:15;;;;;;;3.90;3.08;;;;;;;;;;5017622;28;20036;-88
2024/01/28 11:31:41;;;;;;;5.35;3.08;;;;;;;;;;5011524;28;20081;-90
2024/01/28 11:34:19;;;;;;;6.35;2.70;;;;;;;;;;5013983;28;20043;-87
2024/01/28 11:36:46;;;;;;;4.18;2.70;;;;;;;;;;5015948;28;20391;-87
2024/01/28 11:39:13;;;;;;;2.80;2.38;;;;;;;;;;5017756;28;20737;-89
2024/01/28 11:41:41;;;;;;;2.67;2.22;;;;;;;;;;5014416;28;20044;-89
2024/01/28 11:44:09;;;;;;;4.15;2.40;;;;;;;;;;5009857;28;20033;-88
2024/01/28 11:46:36;;;;;;;3.45;2.10;;;;;;;;;;5012807;28;20044;-89
2024/01/28 11:49:05;;;;;;;3.65;2.30;;;;;;;;;;5013593;28;20026;-89
2024/01/28 11:51:32;;;;;;;3.63;2.80;;;;;;;;;;5017154;28;20030;-88
2024/01/28 11:54:00;;;;;;;4.75;2.38;;;;;;;;;;5019492;28;20094;-89
2024/01/28 11:56:32;;;;;;;3.58;2.08;;;;;;;;;;5013492;28;20120;-89
2024/01/28 11:58:58;;;;;;;4.32;2.47;;;;;;;;;;5014033;28;20112;-89
2024/01/28 12:01:24;;;;;;;5.05;2.17;;;;;;;;;;5013390;28;20029;-88
2024/01/28 12:03:51;;;;;;;3.90;2.00;;;;;;;;;;5013207;28;20030;-88
2024/01/28 12:06:16;;;;;;;5.40;2.30;;;;;;;;;;5014037;28;20025;-88
2024/01/28 12:08:43;;;;;;;2.38;2.15;;;;;;;;;;5015201;28;20135;-88
2024/01/28 12:11:12;;;;;;;2.47;2.15;;;;;;;;;;5013626;28;20188;-90
2024/01/28 12:13:37;;;;;;;4.93;1.77;;;;;;;;;;5014587;28;20399;-87
2024/01/28 12:16:04;;;;;;;3.42;2.30;;;;;;;;;;5013646;28;20492;-88
2024/01/28 12:18:36;;;;;;;2.47;2.15;;;;;;;;;;5016680;28;20026;-90
2024/01/28 12:21:01;;;;;;;3.15;1.80;;;;;;;;;;5012933;28;20041;-90
2024/01/28 12:23:29;;;;;;;3.47;2.28;;;;;;;;;;5014892;28;20038;-90
2024/01/28 12:25:55;;;;;;;3.80;2.22;;;;;;;;;;5015514;28;20018;-89
2024/01/28 12:28:22;;;;;;;2.55;1.83;;;;;;;;;;5015425;28;20030;-88
2024/01/28 12:30:47;;;;;;;3.25;2.13;;;;;;;;;;5013537;28;20129;-89
2024/01/28 12:33:13;;;;;;;3.28;1.95;;;;;;;;;;5014270;28;20037;-87
2024/01/28 12:35:38;;;;;;;3.50;1.95;;;;;;;;;;5012802;28;20099;-88
2024/01/28 12:38:04;;;;;;;2.10;1.77;;;;;;;;;;5016449;28;20057;-89
2024/01/28 12:40:29;;;;;;;4.20;1.90;;;;;;;;;;5016786;28;20029;-88
2024/01/28 12:42:55;;;;;;;3.15;2.08;;;;;;;;;;5015966;28;20032;-89
2024/01/28 12:45:21;;;;;;;3.20;2.25;;;;;;;;;;5017204;28;20032;-87
2024/01/28 12:47:47;;;;;;;3.35;2.33;;;;;;;;;;5014799;28;20032;-88
2024/01/28 12:50:12;;;;;;;2.53;2.08;;;;;;;;;;5017455;28;20108;-88
2024/01/28 12:52:37;;;;;;;2.80;1.83;;;;;;;;;;5019301;28;20026;-88
2024/01/28 12:55:04;;;;;;;2.35;1.92;;;;;;;;;;5013335;28;20037;-88
2024/01/28 12:57:29;;;;;;;2.58;1.90;;;;;;;;;;5014795;28;20025;-89
2024/01/28 12:59:55;;;;;;;2.22;1.48;;;;;;;;;;5015173;28;20545;-87
2024/01/28 13:02:20;;;;;;;2.08;1.70;;;;;;;;;;5017178;28;20026;-88
2024/01/28 13:04:47;;;;;;;1.67;1.55;;;;;;;;;;5023827;28;20081;-87
2024/01/28 13:07:12;;;;;;;1.60;1.50;;;;;;;;;;5016156;28;20773;-86
2024/01/28 13:09:38;;;;;;;2.75;1.85;;;;;;;;;;5016037;28;20061;-87
2024/01/28 13:12:04;;;;;;;2.75;1.75;;;;;;;;;;5032413;28;20029;-87
2024/01/28 13:14:29;;;;;;;4.32;1.98;;;;;;;;;;5012853;28;20018;-88
2024/01/28 13:16:54;;;;;;;2.53;1.63;;;;;;;;;;5013917;28;20029;-89
2024/01/28 13:19:19;;;;;;;3.40;1.40;;;;;;;;;;5011819;28;20045;-87
2024/01/28 13:21:45;;;;;;;2.42;1.88;;;;;;;;;;5014259;28;20486;-88
2024/01/28 13:24:10;;;;;;;3.03;1.52;;;;;;;;;;5011745;28;20045;-87
2024/01/28 13:26:36;;;;;;;3.45;1.80;;;;;;;;;;5012539;28;20545;-88
2024/01/28 13:29:02;;;;;;;2.78;2.00;;;;;;;;;;5013238;28;20435;-87
2024/01/28 13:31:27;;;;;;;4.20;1.63;;;;;;;;;;5010931;28;20025;-87
2024/01/28 13:33:52;;;;;;;1.55;1.40;;;;;;;;;;5010880;28;20408;-87
2024/01/28 13:36:18;;;;;;;1.70;1.60;;;;;;;;;;5011809;28;20033;-87
2024/01/28 13:38:43;;;;;;;2.40;1.60;;;;;;;;;;5010312;28;20049;-86
2024/01/28 13:41:09;;;;;;;2.10;1.42;;;;;;;;;;5013503;28;20381;-87
2024/01/28 13:43:36;;;;;;;2.30;1.33;;;;;;;;;;5011690;28;20033;-87
2024/01/28 13:46:02;;;;;;;2.08;1.52;;;;;;;;;;5012799;28;20530;-87
2024/01/28 13:48:28;;;;;;;1.13;1.08;;;;;;;;;;5014953;28;20030;-88
2024/01/28 13:50:54;;;;;;;1.83;1.67;;;;;;;;;;5013601;28;20061;-87
2024/01/28 13:53:19;;;;;;;1.75;1.35;;;;;;;;;;5013554;28;20033;-88
2024/01/28 13:55:44;;;;;;;1.48;1.20;;;;;;;;;;5011216;28;20040;-87
2024/01/28 13:58:10;;;;;;;1.67;1.58;;;;;;;;;;5011970;28;20061;-87
2024/01/28 14:00:35;;;;;;;1.55;1.42;;;;;;;;;;5013045;28;20030;-87
2024/01/28 14:03:01;;;;;;;2.58;1.38;;;;;;;;;;5015490;28;20392;-88
2024/01/28 14:05:26;;;;;;;1.23;1.13;;;;;;;;;;5014965;28;20040;-88
2024/01/28 14:07:51;;;;;;;2.88;1.65;;;;;;;;;;5014534;28;20028;-87
2024/01/28 14:10:17;;;;;;;2.20;1.30;;;;;;;;;;5016311;28;20018;-87
2024/01/28 14:12:42;;;;;;;1.70;1.33;;;;;;;;;;5016653;28;20098;-86
2024/01/28 14:15:09;;;;;;;2.40;1.48;;;;;;;;;;5017673;28;20559;-87
2024/01/28 14:17:34;;;;;;;1.13;1.02;;;;;;;;;;5015996;28;20030;-87
2024/01/28 14:20:00;;;;;;;2.08;1.38;;;;;;;;;;5015908;28;20109;-87
2024/01/28 14:22:28;;;;;;;2.10;1.40;;;;;;;;;;5020709;28;20025;-87
2024/01/28 14:24:53;;;;;;;1.40;1.30;;;;;;;;;;5014625;28;20021;-87
2024/01/28 14:27:18;;;;;;;1.88;1.52;;;;;;;;;;5013829;28;20021;-87
2024/01/28 14:29:44;;;;;;;2.58;1.45;;;;;;;;;;5016712;28;20045;-87
2024/01/28 14:32:10;;;;;;;2.78;1.67;;;;;;;;;;5014353;28;20034;-87
2024/01/28 14:34:35;;;;;;;2.42;1.23;;;;;;;;;;5010287;28;20032;-87